Time;durP1;ratioP1;P1;durP2;ratioP2;P2;SDS_P1;SDS_P2;PMS_P1;PMS_P2;Temp;Humidity;BMP_temperature;BMP_pressure;BME280_temperature;BME280_humidity;BME280_pressure;Samples;Min_cycle;Max_cycle;Signal;HPM_P1;HPM_P2
2021/04/15 00:00:59;;;;;;;6.20;5.00;;;;;;;5.26;65.45;101265.22;5017940;28;20041;-62
2021/04/15 00:03:30;;;;;;;9.63;4.30;;;;;;;5.24;65.68;101257.44;5017492;28;20567;-63
2021/04/15 00:06:03;;;;;;;7.80;4.68;;;;;;;5.23;64.86;101258.22;5018515;28;20072;-63
2021/04/15 00:08:28;;;;;;;7.57;4.40;;;;;;;5.23;65.25;101258.22;5034027;28;20033;-63
2021/04/15 00:10:56;;;;;;;5.97;4.03;;;;;;;5.22;64.90;101258.13;5035467;28;20083;-63
2021/04/15 00:13:25;;;;;;;8.45;4.78;;;;;;;5.21;65.22;101252.09;5017715;28;20390;-63
2021/04/15 00:15:52;;;;;;;7.07;5.28;;;;;;;5.19;65.17;101248.56;5035824;28;20485;-63
2021/04/15 00:18:20;;;;;;;7.07;5.38;;;;;;;5.19;65.13;101253.69;5018121;28;20033;-63
2021/04/15 00:20:49;;;;;;;10.35;5.65;;;;;;;5.20;65.35;101252.03;5034305;28;20037;-63
2021/04/15 00:23:18;;;;;;;7.50;5.93;;;;;;;5.17;65.08;101248.47;5018053;28;20175;-63
2021/04/15 00:25:46;;;;;;;7.78;5.13;;;;;;;5.16;65.07;101249.28;5034193;28;20124;-63
2021/04/15 00:28:17;;;;;;;5.75;4.72;;;;;;;5.17;64.72;101252.72;5033889;28;20124;-63
2021/04/15 00:30:47;;;;;;;6.72;5.25;;;;;;;5.15;64.76;101250.06;5034563;28;20048;-63
2021/04/15 00:33:20;;;;;;;5.22;4.50;;;;;;;5.14;65.62;101253.44;5017269;28;20033;-63
2021/04/15 00:35:46;;;;;;;6.97;4.80;;;;;;;5.13;64.90;101251.66;5017249;28;20037;-63
2021/04/15 00:38:18;;;;;;;5.35;4.38;;;;;;;5.14;64.91;101245.72;5050628;28;20037;-63
2021/04/15 00:40:49;;;;;;;9.30;5.07;;;;;;;5.13;65.14;101243.09;5017874;28;20037;-63
2021/04/15 00:43:20;;;;;;;6.50;4.82;;;;;;;5.12;64.84;101237.03;5049963;28;20034;-63
2021/04/15 00:45:47;;;;;;;7.28;5.30;;;;;;;5.12;65.38;101241.31;5035217;28;20120;-63
2021/04/15 00:48:35;;;;;;;5.97;4.97;;;;;;;5.09;65.02;101236.84;5034720;28;20033;-63
2021/04/15 00:51:23;;;;;;;6.45;5.13;;;;;;;5.08;65.86;101236.78;5017834;28;20053;-63
2021/04/15 00:53:54;;;;;;;10.02;4.88;;;;;;;5.07;65.81;101230.75;5017763;28;20041;-63
2021/04/15 00:56:20;;;;;;;5.85;4.80;;;;;;;5.07;65.52;101232.44;5016960;28;20037;-63
2021/04/15 00:58:51;;;;;;;11.60;5.90;;;;;;;5.06;65.46;101236.66;5050144;28;20034;-63
2021/04/15 01:01:20;;;;;;;6.43;4.68;;;;;;;5.05;65.05;101234.94;5016930;28;20087;-63
2021/04/15 01:03:48;;;;;;;6.10;4.63;;;;;;;5.02;65.40;101237.31;5014934;28;20136;-63
2021/04/15 01:06:14;;;;;;;7.18;5.32;;;;;;;5.02;65.78;101238.19;4997539;28;20088;-63
2021/04/15 01:08:40;;;;;;;5.80;4.43;;;;;;;4.99;65.77;101234.56;5014223;28;20057;-63
2021/04/15 01:11:26;;;;;;;8.05;6.13;;;;;;;4.96;65.15;101234.38;4997092;28;20026;-63
2021/04/15 01:13:57;;;;;;;7.03;6.05;;;;;;;4.94;65.18;101238.53;4995957;28;20042;-62
2021/04/15 01:16:41;;;;;;;7.30;5.68;;;;;;;4.93;64.63;101239.34;4997117;28;20034;-63
2021/04/15 01:19:43;;;;;;;8.07;5.93;;;;;;;4.88;65.12;101234.84;4997248;28;20136;-62
2021/04/15 01:22:23;;;;;;;8.13;5.60;;;;;;;4.87;65.12;101235.63;5014643;28;20041;-63
2021/04/15 01:25:14;;;;;;;7.18;5.18;;;;;;;4.84;64.87;101235.44;5015044;28;20041;-63
2021/04/15 01:27:51;;;;;;;6.82;5.45;;;;;;;4.82;65.08;101231.91;4997107;28;20041;-63
2021/04/15 01:30:44;;;;;;;6.50;4.95;;;;;;;4.79;65.69;101226.59;4996931;28;20531;-63
2021/04/15 01:33:18;;;;;;;6.30;5.15;;;;;;;4.78;65.40;101234.22;4997208;28;20034;-63
2021/04/15 01:35:57;;;;;;;10.38;6.30;;;;;;;4.76;65.38;101233.22;4996811;28;20485;-63
2021/04/15 01:38:27;;;;;;;8.32;5.85;;;;;;;4.75;65.14;101236.59;4996747;28;20033;-63
2021/04/15 01:41:03;;;;;;;6.95;5.00;;;;;;;4.75;65.47;101234.91;4996670;28;20044;-63
2021/04/15 01:43:35;;;;;;;7.70;5.57;;;;;;;4.74;65.61;101228.00;5013582;28;20030;-63
2021/04/15 01:46:03;;;;;;;7.18;4.88;;;;;;;4.72;65.15;101227.91;5013489;28;20507;-63
2021/04/15 01:48:39;;;;;;;8.25;5.25;;;;;;;4.72;65.13;101229.59;5012859;28;20386;-63
2021/04/15 01:51:23;;;;;;;8.82;5.38;;;;;;;4.71;65.27;101227.84;5013043;28;20066;-63
2021/04/15 01:54:07;;;;;;;6.95;5.30;;;;;;;4.71;64.96;101220.13;5013838;28;20038;-63
2021/04/15 01:56:41;;;;;;;6.03;4.93;;;;;;;4.71;65.57;101217.56;4996223;28;20037;-63
2021/04/15 01:59:15;;;;;;;7.25;5.28;;;;;;;4.70;65.68;101224.34;4996145;28;20041;-63
2021/04/15 02:01:48;;;;;;;8.80;5.35;;;;;;;4.68;64.93;101227.66;5015778;28;20489;-63
2021/04/15 02:04:20;;;;;;;6.40;5.47;;;;;;;4.67;65.49;101231.00;5016321;28;20052;-63
2021/04/15 02:06:51;;;;;;;7.53;5.22;;;;;;;4.66;65.33;101221.53;5015754;28;20052;-63
2021/04/15 02:09:21;;;;;;;6.35;5.35;;;;;;;4.63;65.29;101214.53;5016281;28;20037;-63
2021/04/15 02:12:05;;;;;;;10.40;5.97;;;;;;;4.62;65.36;101214.44;5032284;28;20037;-63
2021/04/15 02:14:37;;;;;;;7.30;5.05;;;;;;;4.61;65.42;101213.56;5032996;28;20125;-63
2021/04/15 02:17:10;;;;;;;7.82;5.72;;;;;;;4.63;65.33;101221.34;5032606;28;20053;-63
2021/04/15 02:19:47;;;;;;;8.60;5.97;;;;;;;4.61;65.16;101216.13;5015856;28;20048;-63
2021/04/15 02:22:36;;;;;;;7.35;5.28;;;;;;;4.60;65.14;101227.19;5032156;28;20114;-63
2021/04/15 02:25:31;;;;;;;5.72;5.15;;;;;;;4.57;65.17;101233.03;5015683;28;20084;-63
2021/04/15 02:28:27;;;;;;;10.93;4.85;;;;;;;4.59;65.54;101234.81;5008280;28;20042;-63
2021/04/15 02:31:04;;;;;;;14.60;5.95;;;;;;;4.57;65.48;101222.78;5033086;28;20038;-63
2021/04/15 02:33:50;;;;;;;9.20;5.90;;;;;;;4.56;65.59;101232.94;5032181;28;20029;-63
2021/04/15 02:36:22;;;;;;;8.63;6.18;;;;;;;4.54;65.60;101237.09;5033692;28;20052;-64
2021/04/15 02:38:51;;;;;;;9.43;5.65;;;;;;;4.53;65.53;101240.44;5015705;28;20182;-63
2021/04/15 02:41:24;;;;;;;8.38;5.32;;;;;;;4.52;65.39;101233.53;5015614;28;20038;-64
2021/04/15 02:44:04;;;;;;;9.50;4.90;;;;;;;4.50;65.90;101245.44;5015584;28;20034;-63
2021/04/15 02:46:36;;;;;;;7.93;5.18;;;;;;;4.47;65.38;101242.66;5032017;28;20084;-63
2021/04/15 02:49:06;;;;;;;7.80;4.53;;;;;;;4.45;65.70;101244.25;5015441;28;20484;-63
2021/04/15 02:51:40;;;;;;;7.88;5.80;;;;;;;4.42;65.78;101240.69;5033318;28;20499;-64
2021/04/15 02:54:29;;;;;;;;;;;;;;;4.39;65.56;101237.06;5032459;28;20037;-63
2021/04/15 02:56:56;;;;;;;9.63;6.13;;;;;;;4.37;65.80;101226.69;5025672;28;19917;-64
2021/04/15 02:59:28;;;;;;;7.07;5.05;;;;;;;4.35;65.37;101225.75;5015353;28;20400;-63
2021/04/15 03:01:59;;;;;;;7.47;5.35;;;;;;;4.32;65.45;101228.13;5033142;28;20061;-63
2021/04/15 03:04:24;;;;;;;7.20;5.57;;;;;;;4.32;65.62;101225.56;5015419;28;20558;-63
2021/04/15 03:06:57;;;;;;;8.85;5.38;;;;;;;4.32;65.39;101234.91;5031570;28;20038;-64
2021/04/15 03:09:24;;;;;;;10.48;5.22;;;;;;;4.33;65.85;101229.00;5015137;28;20045;-63
2021/04/15 03:11:58;;;;;;;11.48;6.40;;;;;;;4.33;65.89;101232.47;5015342;28;20038;-64
2021/04/15 03:14:46;;;;;;;8.02;5.47;;;;;;;4.32;65.69;101233.25;5031729;28;20037;-63
2021/04/15 03:17:13;;;;;;;10.18;5.80;;;;;;;4.32;65.69;101232.34;5015277;28;20120;-63
2021/04/15 03:19:44;;;;;;;8.35;6.30;;;;;;;4.32;65.51;101230.69;5015655;28;20034;-63
2021/04/15 03:22:28;;;;;;;9.10;5.65;;;;;;;4.31;65.60;101233.13;5048690;28;20040;-63
2021/04/15 03:24:59;;;;;;;9.52;6.72;;;;;;;4.29;65.60;101227.94;5031628;28;20041;-64
2021/04/15 03:27:39;;;;;;;8.82;5.75;;;;;;;4.29;65.47;101221.88;5014698;28;20523;-63
2021/04/15 03:30:16;;;;;;;8.13;5.80;;;;;;;4.27;65.14;101221.81;5015633;28;20073;-64
2021/04/15 03:33:04;;;;;;;12.02;5.85;;;;;;;4.26;65.36;101214.91;5015156;28;20501;-63
2021/04/15 03:35:56;;;;;;;8.07;5.72;;;;;;;4.24;65.30;101222.53;5014803;28;20036;-63
2021/04/15 03:38:29;;;;;;;7.90;5.43;;;;;;;4.23;65.60;101218.19;5034683;28;20037;-64
2021/04/15 03:41:14;;;;;;;8.35;5.97;;;;;;;4.22;65.29;101229.25;5035107;28;20038;-64
2021/04/15 03:43:49;;;;;;;7.53;6.13;;;;;;;4.22;65.71;101224.09;5018676;28;20034;-63
2021/04/15 03:46:31;;;;;;;8.13;6.18;;;;;;;4.22;64.96;101239.50;5018370;28;20142;-63
2021/04/15 03:49:12;;;;;;;9.68;6.10;;;;;;;4.20;65.88;101235.94;5018116;28;20037;-63
2021/04/15 03:51:57;;;;;;;8.65;5.55;;;;;;;4.19;65.46;101238.44;5035256;28;20044;-63
2021/04/15 03:54:45;;;;;;;;;;;;;;;4.16;65.93;101238.25;5018510;28;20493;-64
2021/04/15 03:57:17;;;;;;;7.25;5.72;;;;;;;4.15;65.97;101237.34;5018075;28;20007;-63
2021/04/15 03:59:42;;;;;;;7.22;5.88;;;;;;;4.16;65.26;101240.81;5036104;28;20076;-63
2021/04/15 04:02:13;;;;;;;7.88;5.93;;;;;;;4.13;65.64;101233.78;5051052;28;20410;-63
2021/04/15 04:04:47;;;;;;;9.68;6.63;;;;;;;4.13;65.77;101245.75;5018078;28;20029;-63
2021/04/15 04:07:24;;;;;;;7.55;6.40;;;;;;;4.10;65.35;101239.63;5034633;28;20439;-64
2021/04/15 04:09:59;;;;;;;7.55;5.70;;;;;;;4.13;65.97;101245.75;5035063;28;20039;-63
2021/04/15 04:12:41;;;;;;;8.65;6.15;;;;;;;4.11;65.66;101243.09;5018478;28;20048;-63
2021/04/15 04:15:24;;;;;;;11.18;6.60;;;;;;;4.08;65.74;101243.78;5035823;28;20036;-63
2021/04/15 04:18:01;;;;;;;8.70;5.90;;;;;;;4.10;65.87;101244.75;5017861;28;20041;-63
2021/04/15 04:20:37;;;;;;;10.85;6.20;;;;;;;4.07;65.53;101242.00;5034280;28;20488;-63
2021/04/15 04:23:29;;;;;;;8.25;6.15;;;;;;;4.07;65.71;101256.53;5018037;28;20060;-63
2021/04/15 04:26:10;;;;;;;9.05;6.47;;;;;;;4.05;65.68;101248.72;5035609;28;20099;-63
2021/04/15 04:29:01;;;;;;;8.77;5.80;;;;;;;4.04;66.05;101258.91;5018373;28;20128;-63
2021/04/15 04:31:32;;;;;;;11.73;6.60;;;;;;;4.03;65.75;101262.25;5034340;28;20030;-63
2021/04/15 04:34:04;;;;;;;8.10;6.87;;;;;;;4.03;65.57;101257.13;5017666;28;20044;-63
2021/04/15 04:36:38;;;;;;;9.85;6.80;;;;;;;4.02;66.00;101252.78;5033536;28;20326;-63
2021/04/15 04:39:05;;;;;;;8.80;6.78;;;;;;;4.03;65.63;101272.50;5035303;28;20067;-63
2021/04/15 04:42:01;;;;;;;10.07;6.60;;;;;;;4.02;65.71;101268.16;5034976;28;20037;-63
2021/04/15 04:44:41;;;;;;;12.63;6.80;;;;;;;4.01;65.51;101259.59;5033959;28;20037;-63
2021/04/15 04:47:51;;;;;;;7.47;6.05;;;;;;;4.01;65.23;101268.97;5035027;28;20091;-63
2021/04/15 04:50:22;;;;;;;8.95;7.10;;;;;;;4.01;65.95;101266.41;5024297;28;20049;-62
2021/04/15 04:53:11;;;;;;;9.95;7.57;;;;;;;4.03;66.05;101270.84;5033753;28;20045;-63
2021/04/15 04:56:05;;;;;;;11.43;7.82;;;;;;;4.04;65.88;101264.03;5010701;28;20041;-63
2021/04/15 04:58:36;;;;;;;11.43;8.13;;;;;;;4.04;66.21;101271.72;5012694;28;20053;-63
2021/04/15 05:01:03;;;;;;;13.00;7.68;;;;;;;4.04;65.65;101271.72;5034653;28;20393;-63
2021/04/15 05:03:31;;;;;;;11.05;8.40;;;;;;;4.05;66.20;101271.81;5016901;28;20140;-63
2021/04/15 05:06:02;;;;;;;11.10;7.90;;;;;;;4.03;65.80;101273.41;5049681;28;20409;-63
2021/04/15 05:08:34;;;;;;;10.68;7.82;;;;;;;4.04;65.49;101276.84;5016830;28;20132;-63
2021/04/15 05:11:01;;;;;;;;;;;;;;;4.02;66.00;101278.44;5035092;28;20044;-63
2021/04/15 05:13:29;;;;;;;11.27;8.02;;;;;;;4.01;65.31;101274.09;5033219;28;19917;-63
2021/04/15 05:15:55;;;;;;;13.93;8.45;;;;;;;3.99;65.73;101281.72;5034496;28;20071;-63
2021/04/15 05:18:23;;;;;;;13.57;8.77;;;;;;;3.99;65.78;101284.28;5016437;28;20044;-63
2021/04/15 05:20:54;;;;;;;9.07;7.53;;;;;;;4.00;65.93;101282.56;5016896;28;20107;-63
2021/04/15 05:23:33;;;;;;;12.38;7.25;;;;;;;3.97;66.14;101286.72;5017157;28;20400;-63
2021/04/15 05:26:16;;;;;;;13.70;8.95;;;;;;;3.94;65.73;101273.72;5034307;28;20047;-63
2021/04/15 05:28:44;;;;;;;13.75;7.88;;;;;;;3.94;66.04;101277.94;5016483;28;20049;-63
2021/04/15 05:31:13;;;;;;;14.27;8.52;;;;;;;3.92;65.97;101280.44;5033958;28;20038;-63
2021/04/15 05:33:39;;;;;;;11.48;8.57;;;;;;;3.92;66.21;101284.66;5016319;28;20087;-63
2021/04/15 05:36:11;;;;;;;13.70;8.05;;;;;;;3.91;65.77;101288.03;5016310;28;20041;-63
2021/04/15 05:38:44;;;;;;;9.65;8.07;;;;;;;3.88;65.46;101283.59;5016672;28;20036;-63
2021/04/15 05:41:19;;;;;;;11.68;8.23;;;;;;;3.87;65.58;101297.22;5033106;28;20038;-63
2021/04/15 05:43:48;;;;;;;12.35;7.80;;;;;;;3.87;65.47;101289.50;5016337;28;20124;-63
2021/04/15 05:46:23;;;;;;;14.90;7.43;;;;;;;3.87;65.97;101284.38;5049353;28;20069;-63
2021/04/15 05:49:02;;;;;;;11.43;8.00;;;;;;;3.86;65.31;101295.44;5016099;28;20038;-63
2021/04/15 05:51:35;;;;;;;9.50;7.75;;;;;;;3.87;65.95;101292.06;5033721;28;20121;-63
2021/04/15 05:54:10;;;;;;;9.60;6.82;;;;;;;3.88;66.10;101301.53;5015780;28;20543;-63
2021/04/15 05:56:44;;;;;;;10.55;7.40;;;;;;;3.89;65.63;101292.19;5032265;28;20497;-63
2021/04/15 05:59:25;;;;;;;9.75;7.13;;;;;;;3.90;65.60;101299.06;5016078;28;20519;-62
2021/04/15 06:02:08;;;;;;;11.15;7.65;;;;;;;3.90;65.99;101299.97;5033680;28;20544;-63
2021/04/15 06:04:43;;;;;;;9.70;7.43;;;;;;;3.91;65.72;101295.72;5015938;28;20034;-63
2021/04/15 06:07:16;;;;;;;9.90;6.97;;;;;;;3.90;65.85;101294.84;5033936;28;20143;-63
2021/04/15 06:09:43;;;;;;;10.80;7.15;;;;;;;3.88;65.99;101304.13;5033359;28;20397;-63
2021/04/15 06:12:11;;;;;;;10.05;7.38;;;;;;;3.88;66.26;101293.84;5033875;28;20041;-63
2021/04/15 06:14:46;;;;;;;13.18;7.28;;;;;;;3.87;65.71;101297.22;5015767;28;20120;-63
2021/04/15 06:17:31;;;;;;;13.32;7.75;;;;;;;3.88;66.06;101300.69;5016341;28;20076;-63
2021/04/15 06:20:10;;;;;;;11.90;7.53;;;;;;;3.89;65.54;101300.75;5016102;28;20029;-63
2021/04/15 06:22:46;;;;;;;10.05;7.70;;;;;;;3.92;66.01;101300.06;5015824;28;20048;-63
2021/04/15 06:25:17;;;;;;;8.88;6.60;;;;;;;3.95;65.61;101306.28;5033292;28;20117;-63
2021/04/15 06:27:44;;;;;;;10.68;6.72;;;;;;;3.99;65.55;101301.31;5033655;28;20037;-63
2021/04/15 06:30:13;;;;;;;14.80;7.25;;;;;;;4.02;65.90;101309.22;5015679;28;20034;-63
2021/04/15 06:32:59;;;;;;;10.45;6.75;;;;;;;4.03;65.90;101308.44;5048913;28;20045;-63
2021/04/15 06:35:30;;;;;;;10.55;7.07;;;;;;;4.03;65.77;101319.59;5015903;28;20034;-63
2021/04/15 06:38:11;;;;;;;9.25;6.63;;;;;;;4.04;66.09;101316.25;5015569;28;20041;-63
2021/04/15 06:41:11;;;;;;;11.38;6.80;;;;;;;4.08;66.06;101318.19;5032309;28;20033;-63
2021/04/15 06:43:54;;;;;;;11.38;7.28;;;;;;;4.09;66.58;101322.53;5033323;28;20033;-63
2021/04/15 06:46:41;;;;;;;14.65;6.95;;;;;;;4.12;66.21;101327.00;5033041;28;20094;-63
2021/04/15 06:49:10;;;;;;;12.73;7.05;;;;;;;4.14;65.90;101325.38;5033453;28;20044;-63
2021/04/15 06:51:50;;;;;;;9.43;7.18;;;;;;;4.16;66.00;101328.94;5048498;28;20073;-64
2021/04/15 06:54:39;;;;;;;9.00;6.78;;;;;;;4.17;65.82;101324.69;5032733;28;20033;-63
2021/04/15 06:57:29;;;;;;;8.68;7.47;;;;;;;4.18;66.06;101324.78;5015486;28;20038;-63
2021/04/15 07:00:39;;;;;;;9.40;7.05;;;;;;;4.18;66.15;101323.91;5015184;28;20567;-63
2021/04/15 07:03:07;;;;;;;10.52;8.07;;;;;;;4.20;66.42;101327.47;5026723;28;20064;-63
2021/04/15 07:05:50;;;;;;;13.15;7.22;;;;;;;4.20;65.88;101322.34;5031566;28;20037;-63
2021/04/15 07:08:46;;;;;;;13.95;7.75;;;;;;;4.21;65.55;101327.56;5032185;28;20045;-63
2021/04/15 07:11:35;;;;;;;9.20;6.95;;;;;;;4.23;66.00;101322.50;5015411;28;20405;-63
2021/04/15 07:14:37;;;;;;;11.05;7.43;;;;;;;4.23;65.43;101331.09;5019398;28;20068;-63
2021/04/15 07:17:33;;;;;;;10.82;7.03;;;;;;;4.26;66.06;101327.81;5006290;28;20049;-63
2021/04/15 07:20:29;;;;;;;10.05;7.43;;;;;;;4.28;66.27;101320.25;5036988;28;20067;-63
2021/04/15 07:22:57;;;;;;;11.50;7.50;;;;;;;4.30;66.14;101318.63;5051930;28;20111;-63
2021/04/15 07:25:29;;;;;;;11.52;7.97;;;;;;;4.32;66.57;101322.19;5036778;28;20041;-63
2021/04/15 07:28:04;;;;;;;12.32;7.30;;;;;;;4.33;66.42;101319.72;5034844;28;20029;-63
2021/04/15 07:30:57;;;;;;;10.38;7.20;;;;;;;4.34;66.20;101320.59;5019018;28;20045;-63
2021/04/15 07:33:42;;;;;;;9.00;7.15;;;;;;;4.35;65.73;101312.13;5036565;28;20116;-63
2021/04/15 07:36:40;;;;;;;10.10;7.38;;;;;;;4.36;66.00;101313.88;5018646;28;20408;-63
2021/04/15 07:39:25;;;;;;;10.40;7.00;;;;;;;4.38;66.50;101320.88;5035692;28;20037;-63
2021/04/15 07:42:16;;;;;;;13.23;7.40;;;;;;;4.39;66.65;101314.97;5036167;28;20045;-63
2021/04/15 07:44:55;;;;;;;10.43;6.95;;;;;;;4.40;66.42;101323.56;5035984;28;20030;-63
2021/04/15 07:47:39;;;;;;;11.25;7.15;;;;;;;4.44;66.41;101322.94;5036015;28;20033;-63
2021/04/15 07:50:13;;;;;;;9.57;7.53;;;;;;;4.45;66.34;101326.41;5018845;28;20033;-63
2021/04/15 07:53:16;;;;;;;10.50;7.38;;;;;;;4.45;66.13;101327.28;5018344;28;20064;-63
2021/04/15 07:56:18;;;;;;;13.65;7.13;;;;;;;4.46;66.08;101328.19;5018762;28;20451;-63
2021/04/15 07:59:02;;;;;;;9.40;7.72;;;;;;;4.47;66.32;101319.69;5036102;28;20034;-63
2021/04/15 08:01:42;;;;;;;10.30;7.35;;;;;;;4.48;66.13;101322.34;5035922;28;20038;-63
2021/04/15 08:04:16;;;;;;;12.57;7.60;;;;;;;4.49;66.04;101326.69;5018360;28;20091;-63
2021/04/15 08:07:03;;;;;;;9.32;7.88;;;;;;;4.50;66.32;101323.31;5051653;28;20088;-63
2021/04/15 08:09:41;;;;;;;14.48;9.00;;;;;;;4.53;66.18;101325.19;5035918;28;20076;-63
2021/04/15 08:12:15;;;;;;;9.77;7.18;;;;;;;4.55;66.46;101329.63;5034389;28;20421;-63
2021/04/15 08:15:05;;;;;;;10.48;8.35;;;;;;;4.54;65.91;101327.84;5018415;28;20060;-63
2021/04/15 08:17:50;;;;;;;10.43;8.35;;;;;;;4.55;65.99;101327.06;5034579;28;20041;-64
2021/04/15 08:20:40;;;;;;;11.15;8.00;;;;;;;4.56;65.85;101327.94;5017799;28;20488;-63
2021/04/15 08:23:11;;;;;;;10.73;7.00;;;;;;;4.58;66.78;101326.34;5033942;28;20040;-63
2021/04/15 08:26:12;;;;;;;9.77;7.00;;;;;;;4.57;65.71;101322.91;5033881;28;20485;-63
2021/04/15 08:28:54;;;;;;;9.40;7.15;;;;;;;4.59;66.62;101324.69;5033708;28;20029;-63
2021/04/15 08:31:30;;;;;;;11.90;7.53;;;;;;;4.62;66.07;101332.56;5034482;28;20037;-63
2021/04/15 08:34:27;;;;;;;10.30;7.68;;;;;;;4.63;66.13;101329.19;5035116;28;20037;-63
2021/04/15 08:37:23;;;;;;;13.35;7.63;;;;;;;4.63;66.18;101330.09;5009212;28;20082;-63
2021/04/15 08:39:48;;;;;;;12.15;7.57;;;;;;;4.66;66.49;101332.84;5035442;28;20047;-63
2021/04/15 08:42:45;;;;;;;12.68;7.68;;;;;;;4.66;66.45;101335.44;5035350;28;20034;-63
2021/04/15 08:45:29;;;;;;;14.95;8.48;;;;;;;4.68;65.86;101335.50;5017352;28;20037;-63
2021/04/15 08:48:02;;;;;;;9.40;7.00;;;;;;;4.68;66.32;101330.38;5018007;28;20045;-63
2021/04/15 08:50:52;;;;;;;10.05;7.90;;;;;;;4.69;66.19;101325.31;5017583;28;20076;-63
2021/04/15 08:53:29;;;;;;;9.80;7.03;;;;;;;4.71;66.78;101328.00;5035010;28;20067;-63
2021/04/15 08:56:09;;;;;;;12.15;6.88;;;;;;;4.72;66.10;101327.19;5016900;28;20460;-63
2021/04/15 08:58:55;;;;;;;9.63;7.60;;;;;;;4.73;66.61;101327.28;5035235;28;20073;-63
2021/04/15 09:01:34;;;;;;;12.80;7.10;;;;;;;4.73;66.27;101328.97;5017345;28;20033;-63
2021/04/15 09:04:12;;;;;;;10.02;7.38;;;;;;;4.75;66.75;101337.63;5016949;28;20080;-63
2021/04/15 09:06:42;;;;;;;9.05;6.40;;;;;;;4.75;66.18;101335.06;5033138;28;20068;-63
2021/04/15 09:09:31;;;;;;;6.85;5.97;;;;;;;4.75;66.46;101332.50;5034454;28;20038;-63
2021/04/15 09:12:18;;;;;;;10.48;7.50;;;;;;;4.76;66.76;101323.13;5034764;28;20120;-63
2021/04/15 09:14:59;;;;;;;10.93;7.63;;;;;;;4.78;66.67;101329.25;5033291;28;20096;-63
2021/04/15 09:17:56;;;;;;;8.10;6.00;;;;;;;4.78;66.06;101337.81;5050362;28;20136;-63
2021/04/15 09:20:33;;;;;;;10.27;7.03;;;;;;;4.76;66.57;101329.13;5016715;28;20563;-63
2021/04/15 09:23:17;;;;;;;12.02;6.45;;;;;;;4.78;65.97;101334.38;5033235;28;20124;-63
2021/04/15 09:26:01;;;;;;;8.80;5.93;;;;;;;4.77;66.17;101336.06;5016918;28;20448;-63
2021/04/15 09:28:40;;;;;;;10.18;5.82;;;;;;;4.78;66.00;101330.13;5034201;28;20056;-63
2021/04/15 09:31:18;;;;;;;13.68;6.40;;;;;;;4.78;66.21;101332.69;5016531;28;20044;-63
2021/04/15 09:33:59;;;;;;;10.02;6.15;;;;;;;4.79;66.10;101331.91;5016930;28;20037;-63
2021/04/15 09:36:37;;;;;;;9.30;5.32;;;;;;;4.80;66.52;101338.81;5049500;28;20033;-64
2021/04/15 09:39:13;;;;;;;12.18;5.75;;;;;;;4.81;66.06;101327.75;5049764;28;20045;-63
2021/04/15 09:41:54;;;;;;;14.40;6.40;;;;;;;4.82;66.79;101344.94;5016105;28;20041;-63
2021/04/15 09:44:48;;;;;;;10.07;6.00;;;;;;;4.82;66.56;101329.53;5034178;28;20037;-63
2021/04/15 09:47:39;;;;;;;10.68;5.90;;;;;;;4.81;66.05;101334.56;5032985;28;20037;-63
2021/04/15 09:50:19;;;;;;;8.25;5.95;;;;;;;4.82;66.24;101329.53;5032424;28;20076;-63
2021/04/15 09:53:09;;;;;;;9.45;6.32;;;;;;;4.83;66.03;101328.72;5016843;28;20041;-63
2021/04/15 09:55:37;;;;;;;7.75;6.15;;;;;;;4.84;66.11;101325.38;5033903;28;20136;-63
2021/04/15 09:58:21;;;;;;;9.98;5.88;;;;;;;4.85;66.92;101326.25;5016123;28;20043;-63
2021/04/15 10:00:49;;;;;;;11.32;6.70;;;;;;;4.86;66.33;101321.22;5033439;28;20037;-63
2021/04/15 10:03:36;;;;;;;10.23;6.38;;;;;;;4.87;66.44;101325.56;5015875;28;20527;-63
2021/04/15 10:06:29;;;;;;;9.35;5.80;;;;;;;4.87;66.55;101324.66;5015914;28;20036;-63
2021/04/15 10:08:55;;;;;;;6.68;5.13;;;;;;;4.89;66.23;101323.06;5015787;28;20041;-63
2021/04/15 10:11:57;;;;;;;13.68;6.07;;;;;;;4.88;66.55;101323.84;5016220;28;20152;-63
2021/04/15 10:14:40;;;;;;;8.50;5.30;;;;;;;4.88;66.50;101322.19;5033771;28;20428;-63
2021/04/15 10:17:28;;;;;;;7.53;5.80;;;;;;;4.88;65.89;101324.75;5032305;28;20116;-63
2021/04/15 10:20:18;;;;;;;7.68;5.32;;;;;;;4.87;66.26;101330.69;5016294;28;20393;-63
2021/04/15 10:23:06;;;;;;;8.95;6.07;;;;;;;4.88;66.41;101334.13;5033738;28;20032;-63
2021/04/15 10:25:57;;;;;;;7.32;5.47;;;;;;;4.87;66.44;101340.06;5032188;28;20037;-63
2021/04/15 10:28:55;;;;;;;9.20;5.72;;;;;;;4.88;66.66;101329.00;5013693;28;20049;-63
2021/04/15 10:31:46;;;;;;;11.75;5.32;;;;;;;4.87;66.96;101330.69;5033019;28;20106;-63
2021/04/15 10:34:17;;;;;;;10.98;4.78;;;;;;;4.87;66.68;101333.25;5033310;28;20026;-63
2021/04/15 10:36:55;;;;;;;6.55;4.47;;;;;;;4.88;66.36;101327.31;5048714;28;20132;-64
2021/04/15 10:39:45;;;;;;;9.70;5.53;;;;;;;4.88;66.59;101335.03;5015800;28;20034;-63
2021/04/15 10:42:29;;;;;;;5.82;4.18;;;;;;;4.89;66.62;101328.19;5033391;28;20033;-63
2021/04/15 10:45:07;;;;;;;5.20;4.43;;;;;;;4.89;66.54;101323.06;5033815;28;20128;-63
2021/04/15 10:48:01;;;;;;;5.43;4.65;;;;;;;4.90;65.93;101323.97;5052281;28;20034;-63
2021/04/15 10:50:39;;;;;;;8.05;5.10;;;;;;;4.90;66.63;101318.84;5019688;28;20048;-63
2021/04/15 10:53:36;;;;;;;6.47;4.45;;;;;;;4.92;66.67;101325.81;5035443;28;20089;-63
2021/04/15 10:56:09;;;;;;;5.65;4.22;;;;;;;4.93;65.93;101325.03;5035875;28;20033;-63
2021/04/15 10:58:35;;;;;;;10.23;5.97;;;;;;;4.94;66.34;101326.81;5019430;28;20039;-64
2021/04/15 11:01:26;;;;;;;6.15;4.75;;;;;;;4.94;66.76;101326.81;5037095;28;20397;-64
2021/04/15 11:03:58;;;;;;;8.55;5.07;;;;;;;4.95;66.67;101319.97;5034837;28;20098;-64
2021/04/15 11:06:44;;;;;;;6.07;4.43;;;;;;;4.97;66.34;101323.53;5019277;28;20038;-64
2021/04/15 11:09:22;;;;;;;5.57;4.32;;;;;;;4.97;66.36;101315.81;5036781;28;20044;-64
2021/04/15 11:11:57;;;;;;;5.60;4.20;;;;;;;4.96;66.50;101314.94;5018999;28;20041;-64
2021/04/15 11:14:32;;;;;;;7.50;4.70;;;;;;;4.97;66.43;101314.16;5052526;28;20076;-64
2021/04/15 11:16:59;;;;;;;9.25;5.30;;;;;;;4.99;66.41;101311.66;5036555;28;20060;-64
2021/04/15 11:19:32;;;;;;;9.00;4.70;;;;;;;5.00;66.15;101313.44;5019105;28;20055;-64
2021/04/15 11:22:16;;;;;;;9.10;5.30;;;;;;;5.01;66.72;101307.50;5036829;28;20037;-64
2021/04/15 11:24:44;;;;;;;5.80;4.35;;;;;;;5.01;66.11;101308.38;5037091;28;20292;-64
2021/04/15 11:27:13;;;;;;;5.38;4.68;;;;;;;5.01;66.35;101299.78;5035630;28;20381;-64
2021/04/15 11:29:51;;;;;;;6.05;4.95;;;;;;;5.02;66.78;101297.28;5019091;28;20397;-64
2021/04/15 11:32:34;;;;;;;6.45;5.07;;;;;;;5.05;67.04;101298.28;5036601;28;20442;-64
2021/04/15 11:35:13;;;;;;;5.70;4.80;;;;;;;5.05;66.56;101290.56;5018429;28;20045;-64
2021/04/15 11:37:43;;;;;;;5.47;4.90;;;;;;;5.06;66.36;101293.22;5035913;28;20034;-64
2021/04/15 11:40:32;;;;;;;7.85;6.13;;;;;;;5.08;66.11;101289.06;5035188;28;20046;-64
2021/04/15 11:43:23;;;;;;;7.53;5.80;;;;;;;5.09;66.78;101290.81;5018640;28;20107;-64
2021/04/15 11:45:49;;;;;;;7.70;5.65;;;;;;;5.13;66.46;101287.66;5036234;28;20069;-64
2021/04/15 11:48:19;;;;;;;8.32;6.10;;;;;;;5.13;66.00;101271.34;5018811;28;20140;-64
2021/04/15 11:50:49;;;;;;;9.35;6.75;;;;;;;5.16;66.79;101280.13;5018649;28;20057;-63
2021/04/15 11:53:29;;;;;;;8.52;6.28;;;;;;;5.17;65.81;101288.69;5018367;28;20060;-62
2021/04/15 11:56:14;;;;;;;5.90;5.32;;;;;;;5.18;66.28;101275.06;5036398;28;20080;-64
2021/04/15 11:58:44;;;;;;;7.80;6.68;;;;;;;5.21;66.07;101277.81;5035169;28;20087;-64
2021/04/15 12:01:10;;;;;;;7.32;6.15;;;;;;;5.22;66.13;101271.88;5018106;28;20069;-63
2021/04/15 12:04:00;;;;;;;7.25;6.30;;;;;;;5.22;65.85;101277.00;5034187;28;20041;-64
2021/04/15 12:06:34;;;;;;;7.18;6.30;;;;;;;5.24;65.93;101269.38;5035849;28;20029;-63
2021/04/15 12:09:01;;;;;;;8.18;6.22;;;;;;;5.26;66.25;101272.91;5018097;28;20519;-64
2021/04/15 12:11:32;;;;;;;8.23;7.30;;;;;;;5.27;65.92;101269.56;5018318;28;20038;-64
2021/04/15 12:14:07;;;;;;;9.70;7.05;;;;;;;5.28;66.28;101266.19;5018115;28;20037;-64
2021/04/15 12:16:41;;;;;;;8.30;6.80;;;;;;;5.30;65.93;101267.16;5035685;28;20045;-64
2021/04/15 12:19:35;;;;;;;8.45;6.38;;;;;;;5.31;65.70;101266.38;5018136;28;20412;-64
2021/04/15 12:22:31;;;;;;;8.20;6.33;;;;;;;5.31;65.89;101256.97;5051263;28;20076;-64
2021/04/15 12:25:20;;;;;;;9.10;7.03;;;;;;;5.31;66.29;101261.22;5050667;28;20405;-63